sensor_id;sensor_type;location;lat;lon;timestamp;P1;durP1;ratioP1;P2;durP2;ratioP2
4460;SDS011;2243;48.812;9.232;2022-07-23T00:00:33;5.90;;;5.50;;
4460;SDS011;2243;48.812;9.232;2022-07-23T00:03:08;6.10;;;5.60;;
4460;SDS011;2243;48.812;9.232;2022-07-23T00:05:42;6.27;;;5.77;;
4460;SDS011;2243;48.812;9.232;2022-07-23T00:08:13;6.40;;;5.70;;
4460;SDS011;2243;48.812;9.232;2022-07-23T00:10:44;6.13;;;5.07;;
4460;SDS011;2243;48.812;9.232;2022-07-23T00:13:15;5.93;;;5.53;;
4460;SDS011;2243;48.812;9.232;2022-07-23T00:15:46;5.80;;;5.30;;
4460;SDS011;2243;48.812;9.232;2022-07-23T00:18:17;6.93;;;6.23;;
4460;SDS011;2243;48.812;9.232;2022-07-23T00:20:48;5.70;;;5.30;;
4460;SDS011;2243;48.812;9.232;2022-07-23T00:23:20;6.20;;;5.60;;
4460;SDS011;2243;48.812;9.232;2022-07-23T00:25:51;5.17;;;4.77;;
4460;SDS011;2243;48.812;9.232;2022-07-23T00:28:22;5.70;;;5.30;;
4460;SDS011;2243;48.812;9.232;2022-07-23T00:30:53;5.63;;;4.70;;
4460;SDS011;2243;48.812;9.232;2022-07-23T00:33:24;5.30;;;4.80;;
4460;SDS011;2243;48.812;9.232;2022-07-23T00:35:55;5.60;;;5.10;;
4460;SDS011;2243;48.812;9.232;2022-07-23T00:38:26;5.07;;;4.67;;
4460;SDS011;2243;48.812;9.232;2022-07-23T00:40:57;6.20;;;4.97;;
4460;SDS011;2243;48.812;9.232;2022-07-23T00:43:28;5.67;;;5.17;;
4460;SDS011;2243;48.812;9.232;2022-07-23T00:45:59;5.33;;;4.97;;
4460;SDS011;2243;48.812;9.232;2022-07-23T00:48:31;5.40;;;5.00;;
4460;SDS011;2243;48.812;9.232;2022-07-23T00:51:02;5.10;;;4.70;;
4460;SDS011;2243;48.812;9.232;2022-07-23T00:53:35;9.77;;;5.40;;
4460;SDS011;2243;48.812;9.232;2022-07-23T00:56:06;5.40;;;4.90;;
4460;SDS011;2243;48.812;9.232;2022-07-23T00:58:37;5.40;;;4.90;;
4460;SDS011;2243;48.812;9.232;2022-07-23T01:01:13;5.30;;;4.90;;
4460;SDS011;2243;48.812;9.232;2022-07-23T01:03:44;5.67;;;5.27;;
4460;SDS011;2243;48.812;9.232;2022-07-23T01:06:15;5.30;;;4.90;;
4460;SDS011;2243;48.812;9.232;2022-07-23T01:08:46;5.50;;;5.10;;
4460;SDS011;2243;48.812;9.232;2022-07-23T01:11:18;5.30;;;4.90;;
4460;SDS011;2243;48.812;9.232;2022-07-23T01:13:49;5.90;;;5.37;;
4460;SDS011;2243;48.812;9.232;2022-07-23T01:16:20;6.10;;;5.60;;
4460;SDS011;2243;48.812;9.232;2022-07-23T01:18:51;5.13;;;4.73;;
4460;SDS011;2243;48.812;9.232;2022-07-23T01:21:22;5.03;;;4.63;;
4460;SDS011;2243;48.812;9.232;2022-07-23T01:23:55;5.00;;;4.70;;
4460;SDS011;2243;48.812;9.232;2022-07-23T01:26:25;4.70;;;4.40;;
4460;SDS011;2243;48.812;9.232;2022-07-23T01:28:56;5.33;;;4.77;;
4460;SDS011;2243;48.812;9.232;2022-07-23T01:31:28;5.50;;;5.00;;
4460;SDS011;2243;48.812;9.232;2022-07-23T01:34:01;7.00;;;5.23;;
4460;SDS011;2243;48.812;9.232;2022-07-23T01:36:32;5.37;;;4.87;;
4460;SDS011;2243;48.812;9.232;2022-07-23T01:39:07;5.60;;;5.20;;
4460;SDS011;2243;48.812;9.232;2022-07-23T01:41:38;5.27;;;4.63;;
4460;SDS011;2243;48.812;9.232;2022-07-23T01:44:13;5.30;;;4.90;;
4460;SDS011;2243;48.812;9.232;2022-07-23T01:46:45;5.07;;;4.73;;
4460;SDS011;2243;48.812;9.232;2022-07-23T01:49:16;5.07;;;4.67;;
4460;SDS011;2243;48.812;9.232;2022-07-23T01:51:47;5.57;;;5.17;;
4460;SDS011;2243;48.812;9.232;2022-07-23T01:54:33;5.33;;;4.93;;
4460;SDS011;2243;48.812;9.232;2022-07-23T01:57:05;5.43;;;5.00;;
4460;SDS011;2243;48.812;9.232;2022-07-23T01:59:37;4.67;;;4.37;;
4460;SDS011;2243;48.812;9.232;2022-07-23T02:02:12;5.50;;;5.10;;
4460;SDS011;2243;48.812;9.232;2022-07-23T02:04:43;5.30;;;4.90;;
4460;SDS011;2243;48.812;9.232;2022-07-23T02:07:14;6.57;;;4.87;;
4460;SDS011;2243;48.812;9.232;2022-07-23T02:09:45;5.33;;;4.83;;
4460;SDS011;2243;48.812;9.232;2022-07-23T02:12:16;5.13;;;4.73;;
4460;SDS011;2243;48.812;9.232;2022-07-23T02:14:47;5.03;;;4.70;;
4460;SDS011;2243;48.812;9.232;2022-07-23T02:17:18;6.13;;;5.57;;
4460;SDS011;2243;48.812;9.232;2022-07-23T02:19:49;5.50;;;5.10;;
4460;SDS011;2243;48.812;9.232;2022-07-23T02:22:20;5.53;;;5.03;;
4460;SDS011;2243;48.812;9.232;2022-07-23T02:24:51;5.40;;;4.90;;
4460;SDS011;2243;48.812;9.232;2022-07-23T02:27:22;5.43;;;4.90;;
4460;SDS011;2243;48.812;9.232;2022-07-23T02:29:53;5.50;;;5.00;;
4460;SDS011;2243;48.812;9.232;2022-07-23T02:32:24;5.60;;;5.20;;
4460;SDS011;2243;48.812;9.232;2022-07-23T02:34:55;5.97;;;4.63;;
4460;SDS011;2243;48.812;9.232;2022-07-23T02:37:26;5.77;;;5.27;;
4460;SDS011;2243;48.812;9.232;2022-07-23T02:39:58;5.60;;;5.20;;
4460;SDS011;2243;48.812;9.232;2022-07-23T02:42:29;5.27;;;4.87;;
4460;SDS011;2243;48.812;9.232;2022-07-23T02:44:59;5.00;;;4.60;;
4460;SDS011;2243;48.812;9.232;2022-07-23T02:47:30;5.83;;;5.33;;
4460;SDS011;2243;48.812;9.232;2022-07-23T02:50:02;5.90;;;5.07;;
4460;SDS011;2243;48.812;9.232;2022-07-23T02:52:35;6.40;;;5.30;;
4460;SDS011;2243;48.812;9.232;2022-07-23T02:55:06;6.23;;;5.30;;
4460;SDS011;2243;48.812;9.232;2022-07-23T02:57:38;5.33;;;4.90;;
4460;SDS011;2243;48.812;9.232;2022-07-23T03:00:11;5.53;;;5.07;;
4460;SDS011;2243;48.812;9.232;2022-07-23T03:02:43;6.50;;;5.13;;
4460;SDS011;2243;48.812;9.232;2022-07-23T03:05:14;5.40;;;5.00;;
4460;SDS011;2243;48.812;9.232;2022-07-23T03:07:45;6.73;;;5.23;;
4460;SDS011;2243;48.812;9.232;2022-07-23T03:10:16;5.33;;;4.83;;
4460;SDS011;2243;48.812;9.232;2022-07-23T03:12:47;6.80;;;6.20;;
4460;SDS011;2243;48.812;9.232;2022-07-23T03:15:18;5.10;;;4.80;;
4460;SDS011;2243;48.812;9.232;2022-07-23T03:17:49;5.23;;;4.77;;
4460;SDS011;2243;48.812;9.232;2022-07-23T03:20:20;6.87;;;5.47;;
4460;SDS011;2243;48.812;9.232;2022-07-23T03:22:51;5.10;;;4.70;;
4460;SDS011;2243;48.812;9.232;2022-07-23T03:25:22;5.23;;;4.83;;
4460;SDS011;2243;48.812;9.232;2022-07-23T03:27:53;9.30;;;5.40;;
4460;SDS011;2243;48.812;9.232;2022-07-23T03:30:24;5.23;;;4.83;;
4460;SDS011;2243;48.812;9.232;2022-07-23T03:32:55;5.73;;;5.23;;
4460;SDS011;2243;48.812;9.232;2022-07-23T03:35:26;6.73;;;6.10;;
4460;SDS011;2243;48.812;9.232;2022-07-23T03:37:57;7.93;;;5.70;;
4460;SDS011;2243;48.812;9.232;2022-07-23T03:40:28;6.27;;;5.70;;
4460;SDS011;2243;48.812;9.232;2022-07-23T03:42:59;5.83;;;5.23;;
4460;SDS011;2243;48.812;9.232;2022-07-23T03:45:30;5.40;;;4.90;;
4460;SDS011;2243;48.812;9.232;2022-07-23T03:48:02;5.67;;;5.10;;
4460;SDS011;2243;48.812;9.232;2022-07-23T03:50:33;6.43;;;4.67;;
4460;SDS011;2243;48.812;9.232;2022-07-23T03:53:04;6.63;;;4.80;;
4460;SDS011;2243;48.812;9.232;2022-07-23T03:55:35;8.43;;;6.00;;
4460;SDS011;2243;48.812;9.232;2022-07-23T03:58:07;5.23;;;4.73;;
4460;SDS011;2243;48.812;9.232;2022-07-23T04:00:38;6.13;;;5.63;;
4460;SDS011;2243;48.812;9.232;2022-07-23T04:03:11;5.80;;;5.30;;
4460;SDS011;2243;48.812;9.232;2022-07-23T04:05:42;6.27;;;5.67;;
4460;SDS011;2243;48.812;9.232;2022-07-23T04:08:14;6.53;;;5.90;;
4460;SDS011;2243;48.812;9.232;2022-07-23T04:10:44;6.30;;;5.53;;
4460;SDS011;2243;48.812;9.232;2022-07-23T04:13:15;6.20;;;5.60;;
4460;SDS011;2243;48.812;9.232;2022-07-23T04:15:46;6.77;;;6.10;;
4460;SDS011;2243;48.812;9.232;2022-07-23T04:18:17;8.10;;;6.60;;
4460;SDS011;2243;48.812;9.232;2022-07-23T04:20:49;6.40;;;5.80;;
4460;SDS011;2243;48.812;9.232;2022-07-23T04:23:22;6.60;;;5.43;;
4460;SDS011;2243;48.812;9.232;2022-07-23T04:25:55;8.20;;;6.10;;
4460;SDS011;2243;48.812;9.232;2022-07-23T04:28:26;5.60;;;5.20;;
4460;SDS011;2243;48.812;9.232;2022-07-23T04:30:58;7.17;;;6.43;;
4460;SDS011;2243;48.812;9.232;2022-07-23T04:33:29;6.03;;;5.53;;
4460;SDS011;2243;48.812;9.232;2022-07-23T04:36:00;5.83;;;5.33;;
4460;SDS011;2243;48.812;9.232;2022-07-23T04:38:31;6.60;;;6.10;;
4460;SDS011;2243;48.812;9.232;2022-07-23T04:41:05;8.27;;;5.87;;
4460;SDS011;2243;48.812;9.232;2022-07-23T04:43:36;6.67;;;6.17;;
4460;SDS011;2243;48.812;9.232;2022-07-23T04:46:07;5.43;;;5.03;;
4460;SDS011;2243;48.812;9.232;2022-07-23T04:48:42;7.13;;;6.53;;
4460;SDS011;2243;48.812;9.232;2022-07-23T04:51:13;6.83;;;5.43;;
4460;SDS011;2243;48.812;9.232;2022-07-23T04:53:44;9.57;;;6.40;;
4460;SDS011;2243;48.812;9.232;2022-07-23T04:56:16;6.37;;;5.87;;
4460;SDS011;2243;48.812;9.232;2022-07-23T04:58:48;6.53;;;5.93;;
4460;SDS011;2243;48.812;9.232;2022-07-23T05:01:19;7.40;;;6.70;;
4460;SDS011;2243;48.812;9.232;2022-07-23T05:03:50;6.77;;;6.20;;
4460;SDS011;2243;48.812;9.232;2022-07-23T05:06:21;6.30;;;5.70;;
4460;SDS011;2243;48.812;9.232;2022-07-23T05:08:52;5.93;;;5.40;;
4460;SDS011;2243;48.812;9.232;2022-07-23T05:11:23;5.53;;;5.10;;
4460;SDS011;2243;48.812;9.232;2022-07-23T05:13:56;5.83;;;5.43;;
4460;SDS011;2243;48.812;9.232;2022-07-23T05:16:27;5.97;;;5.57;;
4460;SDS011;2243;48.812;9.232;2022-07-23T05:18:58;6.10;;;5.60;;
4460;SDS011;2243;48.812;9.232;2022-07-23T05:21:30;6.70;;;6.00;;
4460;SDS011;2243;48.812;9.232;2022-07-23T05:24:01;6.80;;;6.20;;
4460;SDS011;2243;48.812;9.232;2022-07-23T05:26:32;6.27;;;5.77;;
4460;SDS011;2243;48.812;9.232;2022-07-23T05:29:03;7.00;;;4.90;;
4460;SDS011;2243;48.812;9.232;2022-07-23T05:31:34;7.30;;;6.60;;
4460;SDS011;2243;48.812;9.232;2022-07-23T05:34:05;7.70;;;5.83;;
4460;SDS011;2243;48.812;9.232;2022-07-23T05:36:36;8.63;;;5.83;;
4460;SDS011;2243;48.812;9.232;2022-07-23T05:39:07;7.30;;;6.60;;
4460;SDS011;2243;48.812;9.232;2022-07-23T05:41:38;6.50;;;5.97;;
4460;SDS011;2243;48.812;9.232;2022-07-23T05:44:29;5.60;;;5.20;;
4460;SDS011;2243;48.812;9.232;2022-07-23T05:47:09;7.53;;;6.83;;
4460;SDS011;2243;48.812;9.232;2022-07-23T05:49:40;7.60;;;6.87;;
4460;SDS011;2243;48.812;9.232;2022-07-23T05:52:20;6.93;;;6.20;;
4460;SDS011;2243;48.812;9.232;2022-07-23T05:54:52;6.47;;;5.83;;
4460;SDS011;2243;48.812;9.232;2022-07-23T05:57:23;6.67;;;6.17;;
4460;SDS011;2243;48.812;9.232;2022-07-23T05:59:56;6.30;;;5.80;;
4460;SDS011;2243;48.812;9.232;2022-07-23T06:02:27;7.10;;;6.13;;
4460;SDS011;2243;48.812;9.232;2022-07-23T06:04:58;6.40;;;5.90;;
4460;SDS011;2243;48.812;9.232;2022-07-23T06:07:29;6.07;;;5.47;;
4460;SDS011;2243;48.812;9.232;2022-07-23T06:10:00;7.10;;;6.50;;
4460;SDS011;2243;48.812;9.232;2022-07-23T06:12:34;6.90;;;6.30;;
4460;SDS011;2243;48.812;9.232;2022-07-23T06:15:07;6.30;;;5.80;;
4460;SDS011;2243;48.812;9.232;2022-07-23T06:17:42;6.03;;;5.43;;
4460;SDS011;2243;48.812;9.232;2022-07-23T06:20:16;7.30;;;6.60;;
4460;SDS011;2243;48.812;9.232;2022-07-23T06:22:47;7.10;;;6.50;;
4460;SDS011;2243;48.812;9.232;2022-07-23T06:25:20;7.10;;;6.60;;
4460;SDS011;2243;48.812;9.232;2022-07-23T06:27:51;10.03;;;6.87;;
4460;SDS011;2243;48.812;9.232;2022-07-23T06:30:22;7.93;;;7.10;;
4460;SDS011;2243;48.812;9.232;2022-07-23T06:32:54;7.73;;;7.00;;
4460;SDS011;2243;48.812;9.232;2022-07-23T06:35:29;7.83;;;7.03;;
4460;SDS011;2243;48.812;9.232;2022-07-23T06:38:00;7.07;;;6.47;;
4460;SDS011;2243;48.812;9.232;2022-07-23T06:40:32;8.67;;;6.97;;
4460;SDS011;2243;48.812;9.232;2022-07-23T06:43:06;6.97;;;6.33;;
4460;SDS011;2243;48.812;9.232;2022-07-23T06:45:52;9.63;;;7.10;;
4460;SDS011;2243;48.812;9.232;2022-07-23T06:48:52;7.10;;;6.50;;
4460;SDS011;2243;48.812;9.232;2022-07-23T06:51:34;6.90;;;6.40;;
4460;SDS011;2243;48.812;9.232;2022-07-23T06:55:04;6.30;;;5.90;;
4460;SDS011;2243;48.812;9.232;2022-07-23T06:57:58;7.53;;;6.87;;
4460;SDS011;2243;48.812;9.232;2022-07-23T07:01:12;7.10;;;6.53;;
4460;SDS011;2243;48.812;9.232;2022-07-23T07:08:40;7.33;;;6.73;;
4460;SDS011;2243;48.812;9.232;2022-07-23T07:12:16;7.03;;;6.40;;
4460;SDS011;2243;48.812;9.232;2022-07-23T07:15:52;7.47;;;6.87;;
4460;SDS011;2243;48.812;9.232;2022-07-23T07:19:02;7.87;;;7.07;;
4460;SDS011;2243;48.812;9.232;2022-07-23T07:21:34;7.87;;;7.00;;
4460;SDS011;2243;48.812;9.232;2022-07-23T07:27:54;8.90;;;7.07;;
4460;SDS011;2243;48.812;9.232;2022-07-23T07:30:25;10.63;;;9.60;;
4460;SDS011;2243;48.812;9.232;2022-07-23T07:33:03;8.33;;;7.47;;
4460;SDS011;2243;48.812;9.232;2022-07-23T07:35:34;6.83;;;6.27;;
4460;SDS011;2243;48.812;9.232;2022-07-23T07:38:05;7.43;;;6.83;;
4460;SDS011;2243;48.812;9.232;2022-07-23T07:40:36;7.73;;;6.93;;
4460;SDS011;2243;48.812;9.232;2022-07-23T07:43:07;7.03;;;6.33;;
4460;SDS011;2243;48.812;9.232;2022-07-23T07:45:40;7.13;;;6.53;;
4460;SDS011;2243;48.812;9.232;2022-07-23T07:48:11;12.40;;;7.00;;
4460;SDS011;2243;48.812;9.232;2022-07-23T07:50:43;8.97;;;8.07;;
4460;SDS011;2243;48.812;9.232;2022-07-23T07:53:15;7.83;;;7.00;;
4460;SDS011;2243;48.812;9.232;2022-07-23T07:55:46;8.80;;;6.73;;
4460;SDS011;2243;48.812;9.232;2022-07-23T07:58:21;10.20;;;7.20;;
4460;SDS011;2243;48.812;9.232;2022-07-23T08:00:52;7.63;;;6.90;;
4460;SDS011;2243;48.812;9.232;2022-07-23T08:03:23;7.63;;;6.93;;
4460;SDS011;2243;48.812;9.232;2022-07-23T08:05:54;8.07;;;7.30;;
4460;SDS011;2243;48.812;9.232;2022-07-23T08:08:25;12.17;;;7.60;;
4460;SDS011;2243;48.812;9.232;2022-07-23T08:10:58;7.60;;;6.80;;
4460;SDS011;2243;48.812;9.232;2022-07-23T08:13:36;7.90;;;7.27;;
4460;SDS011;2243;48.812;9.232;2022-07-23T08:16:09;7.73;;;6.90;;
4460;SDS011;2243;48.812;9.232;2022-07-23T08:18:41;7.73;;;6.93;;
4460;SDS011;2243;48.812;9.232;2022-07-23T08:21:12;7.70;;;6.90;;
4460;SDS011;2243;48.812;9.232;2022-07-23T08:23:44;7.80;;;7.10;;
4460;SDS011;2243;48.812;9.232;2022-07-23T08:26:14;8.93;;;7.33;;
4460;SDS011;2243;48.812;9.232;2022-07-23T08:28:45;9.30;;;7.47;;
4460;SDS011;2243;48.812;9.232;2022-07-23T08:31:16;7.53;;;6.83;;
4460;SDS011;2243;48.812;9.232;2022-07-23T08:33:49;7.47;;;6.87;;
4460;SDS011;2243;48.812;9.232;2022-07-23T08:36:20;8.00;;;7.20;;
4460;SDS011;2243;48.812;9.232;2022-07-23T08:38:51;7.10;;;6.33;;
4460;SDS011;2243;48.812;9.232;2022-07-23T08:41:22;7.00;;;6.40;;
4460;SDS011;2243;48.812;9.232;2022-07-23T08:43:52;8.67;;;7.00;;
4460;SDS011;2243;48.812;9.232;2022-07-23T08:46:23;7.37;;;6.30;;
4460;SDS011;2243;48.812;9.232;2022-07-23T08:48:55;6.53;;;5.93;;
4460;SDS011;2243;48.812;9.232;2022-07-23T08:51:27;7.97;;;7.27;;
4460;SDS011;2243;48.812;9.232;2022-07-23T08:53:58;7.00;;;6.33;;
4460;SDS011;2243;48.812;9.232;2022-07-23T08:56:31;10.10;;;6.47;;
4460;SDS011;2243;48.812;9.232;2022-07-23T08:59:02;7.23;;;6.53;;
4460;SDS011;2243;48.812;9.232;2022-07-23T09:01:33;7.87;;;7.07;;
4460;SDS011;2243;48.812;9.232;2022-07-23T09:04:04;6.70;;;6.20;;
4460;SDS011;2243;48.812;9.232;2022-07-23T09:06:38;8.20;;;7.17;;
4460;SDS011;2243;48.812;9.232;2022-07-23T09:09:18;10.33;;;6.70;;
4460;SDS011;2243;48.812;9.232;2022-07-23T09:12:04;6.57;;;6.07;;
4460;SDS011;2243;48.812;9.232;2022-07-23T09:14:41;7.30;;;6.60;;
4460;SDS011;2243;48.812;9.232;2022-07-23T09:17:16;6.90;;;6.30;;
4460;SDS011;2243;48.812;9.232;2022-07-23T09:19:48;7.10;;;6.40;;
4460;SDS011;2243;48.812;9.232;2022-07-23T09:25:10;7.00;;;6.40;;
4460;SDS011;2243;48.812;9.232;2022-07-23T09:27:54;6.80;;;6.30;;
4460;SDS011;2243;48.812;9.232;2022-07-23T09:30:31;6.70;;;6.03;;
4460;SDS011;2243;48.812;9.232;2022-07-23T09:33:06;6.87;;;5.57;;
4460;SDS011;2243;48.812;9.232;2022-07-23T09:35:55;7.00;;;6.30;;
4460;SDS011;2243;48.812;9.232;2022-07-23T09:38:26;7.40;;;6.70;;
4460;SDS011;2243;48.812;9.232;2022-07-23T09:41:09;7.43;;;5.53;;
4460;SDS011;2243;48.812;9.232;2022-07-23T09:43:41;7.17;;;6.10;;
4460;SDS011;2243;48.812;9.232;2022-07-23T09:46:20;6.20;;;5.67;;
4460;SDS011;2243;48.812;9.232;2022-07-23T09:48:55;7.13;;;6.30;;
4460;SDS011;2243;48.812;9.232;2022-07-23T09:51:27;10.53;;;6.50;;
4460;SDS011;2243;48.812;9.232;2022-07-23T09:54:07;10.23;;;7.07;;
4460;SDS011;2243;48.812;9.232;2022-07-23T09:57:02;6.30;;;5.77;;
4460;SDS011;2243;48.812;9.232;2022-07-23T09:59:39;7.67;;;6.37;;
4460;SDS011;2243;48.812;9.232;2022-07-23T10:02:12;6.73;;;6.00;;
4460;SDS011;2243;48.812;9.232;2022-07-23T10:04:45;6.10;;;5.50;;
4460;SDS011;2243;48.812;9.232;2022-07-23T10:07:17;6.67;;;6.17;;
4460;SDS011;2243;48.812;9.232;2022-07-23T10:09:50;6.63;;;6.13;;
4460;SDS011;2243;48.812;9.232;2022-07-23T10:12:23;6.97;;;6.27;;
4460;SDS011;2243;48.812;9.232;2022-07-23T10:15:13;5.83;;;5.33;;
4460;SDS011;2243;48.812;9.232;2022-07-23T10:17:44;6.70;;;6.10;;
4460;SDS011;2243;48.812;9.232;2022-07-23T10:20:15;6.70;;;6.20;;
4460;SDS011;2243;48.812;9.232;2022-07-23T10:22:48;6.40;;;5.70;;
4460;SDS011;2243;48.812;9.232;2022-07-23T10:25:41;6.40;;;5.90;;
4460;SDS011;2243;48.812;9.232;2022-07-23T10:29:39;7.90;;;7.10;;
4460;SDS011;2243;48.812;9.232;2022-07-23T10:32:59;6.67;;;6.17;;
4460;SDS011;2243;48.812;9.232;2022-07-23T10:36:19;8.43;;;5.73;;
4460;SDS011;2243;48.812;9.232;2022-07-23T10:42:15;6.90;;;6.30;;
4460;SDS011;2243;48.812;9.232;2022-07-23T10:44:47;6.97;;;6.30;;
4460;SDS011;2243;48.812;9.232;2022-07-23T10:47:28;7.00;;;6.40;;
4460;SDS011;2243;48.812;9.232;2022-07-23T10:50:17;11.20;;;6.40;;
4460;SDS011;2243;48.812;9.232;2022-07-23T10:55:39;6.87;;;6.17;;
4460;SDS011;2243;48.812;9.232;2022-07-23T10:58:23;6.60;;;6.00;;
4460;SDS011;2243;48.812;9.232;2022-07-23T11:01:30;7.33;;;6.60;;
4460;SDS011;2243;48.812;9.232;2022-07-23T11:04:06;9.53;;;6.10;;
4460;SDS011;2243;48.812;9.232;2022-07-23T11:09:28;7.00;;;6.03;;
4460;SDS011;2243;48.812;9.232;2022-07-23T11:20:26;7.37;;;6.63;;
4460;SDS011;2243;48.812;9.232;2022-07-23T11:22:58;7.00;;;6.40;;
4460;SDS011;2243;48.812;9.232;2022-07-23T11:25:35;6.83;;;6.23;;
4460;SDS011;2243;48.812;9.232;2022-07-23T11:28:11;8.83;;;7.57;;
4460;SDS011;2243;48.812;9.232;2022-07-23T11:31:16;5.90;;;5.50;;
4460;SDS011;2243;48.812;9.232;2022-07-23T11:34:39;6.00;;;5.40;;
4460;SDS011;2243;48.812;9.232;2022-07-23T11:37:39;5.50;;;5.03;;
4460;SDS011;2243;48.812;9.232;2022-07-23T11:40:15;4.90;;;4.60;;
4460;SDS011;2243;48.812;9.232;2022-07-23T11:42:51;4.93;;;4.57;;
4460;SDS011;2243;48.812;9.232;2022-07-23T11:45:56;6.20;;;5.80;;
4460;SDS011;2243;48.812;9.232;2022-07-23T11:48:37;6.07;;;5.10;;
4460;SDS011;2243;48.812;9.232;2022-07-23T11:51:25;5.67;;;5.30;;
4460;SDS011;2243;48.812;9.232;2022-07-23T11:54:04;5.70;;;5.37;;
4460;SDS011;2243;48.812;9.232;2022-07-23T11:56:36;6.23;;;5.73;;
4460;SDS011;2243;48.812;9.232;2022-07-23T11:59:07;6.27;;;5.77;;
4460;SDS011;2243;48.812;9.232;2022-07-23T12:01:52;6.17;;;5.77;;
4460;SDS011;2243;48.812;9.232;2022-07-23T12:10:12;7.00;;;6.30;;
4460;SDS011;2243;48.812;9.232;2022-07-23T12:12:58;7.47;;;6.70;;
4460;SDS011;2243;48.812;9.232;2022-07-23T12:15:44;7.17;;;6.57;;
4460;SDS011;2243;48.812;9.232;2022-07-23T12:18:22;6.57;;;6.10;;
4460;SDS011;2243;48.812;9.232;2022-07-23T12:20:55;6.77;;;6.23;;
4460;SDS011;2243;48.812;9.232;2022-07-23T12:23:31;6.60;;;6.00;;
4460;SDS011;2243;48.812;9.232;2022-07-23T12:26:02;6.53;;;5.97;;
4460;SDS011;2243;48.812;9.232;2022-07-23T12:28:42;6.53;;;6.03;;
4460;SDS011;2243;48.812;9.232;2022-07-23T12:31:28;6.90;;;6.20;;
4460;SDS011;2243;48.812;9.232;2022-07-23T12:34:13;6.80;;;6.20;;
4460;SDS011;2243;48.812;9.232;2022-07-23T12:36:45;7.43;;;6.67;;
4460;SDS011;2243;48.812;9.232;2022-07-23T12:39:32;6.37;;;5.93;;
4460;SDS011;2243;48.812;9.232;2022-07-23T12:42:11;6.57;;;6.00;;
4460;SDS011;2243;48.812;9.232;2022-07-23T12:47:50;7.13;;;6.43;;
4460;SDS011;2243;48.812;9.232;2022-07-23T12:53:24;6.20;;;5.60;;
4460;SDS011;2243;48.812;9.232;2022-07-23T12:56:15;5.97;;;5.57;;
4460;SDS011;2243;48.812;9.232;2022-07-23T12:59:09;7.20;;;6.10;;
4460;SDS011;2243;48.812;9.232;2022-07-23T13:01:54;6.53;;;6.10;;
4460;SDS011;2243;48.812;9.232;2022-07-23T13:04:36;6.23;;;5.80;;
4460;SDS011;2243;48.812;9.232;2022-07-23T13:07:33;11.67;;;7.10;;
4460;SDS011;2243;48.812;9.232;2022-07-23T13:10:18;6.80;;;6.30;;
4460;SDS011;2243;48.812;9.232;2022-07-23T13:12:55;6.47;;;6.07;;
4460;SDS011;2243;48.812;9.232;2022-07-23T13:15:46;7.30;;;6.70;;
4460;SDS011;2243;48.812;9.232;2022-07-23T13:18:19;7.10;;;6.50;;
4460;SDS011;2243;48.812;9.232;2022-07-23T13:20:51;7.20;;;6.63;;
4460;SDS011;2243;48.812;9.232;2022-07-23T13:23:27;8.00;;;7.20;;
4460;SDS011;2243;48.812;9.232;2022-07-23T13:25:59;8.50;;;7.07;;
4460;SDS011;2243;48.812;9.232;2022-07-23T13:28:30;10.20;;;8.17;;
4460;SDS011;2243;48.812;9.232;2022-07-23T13:31:01;7.70;;;6.90;;
4460;SDS011;2243;48.812;9.232;2022-07-23T13:33:33;7.03;;;6.43;;
4460;SDS011;2243;48.812;9.232;2022-07-23T13:36:16;7.20;;;6.70;;
4460;SDS011;2243;48.812;9.232;2022-07-23T13:38:54;8.40;;;6.83;;
4460;SDS011;2243;48.812;9.232;2022-07-23T13:41:40;7.53;;;6.73;;
4460;SDS011;2243;48.812;9.232;2022-07-23T13:44:22;7.03;;;6.50;;
4460;SDS011;2243;48.812;9.232;2022-07-23T13:46:53;7.60;;;6.90;;
4460;SDS011;2243;48.812;9.232;2022-07-23T13:49:34;8.63;;;7.93;;
4460;SDS011;2243;48.812;9.232;2022-07-23T13:52:12;8.77;;;7.97;;
4460;SDS011;2243;48.812;9.232;2022-07-23T13:54:51;9.10;;;7.20;;
4460;SDS011;2243;48.812;9.232;2022-07-23T13:57:26;7.87;;;6.90;;
4460;SDS011;2243;48.812;9.232;2022-07-23T13:59:59;8.63;;;7.83;;
4460;SDS011;2243;48.812;9.232;2022-07-23T14:02:30;8.50;;;7.80;;
4460;SDS011;2243;48.812;9.232;2022-07-23T14:05:04;8.17;;;7.47;;
4460;SDS011;2243;48.812;9.232;2022-07-23T14:07:40;8.60;;;7.90;;
4460;SDS011;2243;48.812;9.232;2022-07-23T14:10:15;7.93;;;7.17;;
4460;SDS011;2243;48.812;9.232;2022-07-23T14:13:08;7.57;;;7.00;;
4460;SDS011;2243;48.812;9.232;2022-07-23T14:15:39;9.63;;;7.40;;
4460;SDS011;2243;48.812;9.232;2022-07-23T14:18:52;8.10;;;7.40;;
4460;SDS011;2243;48.812;9.232;2022-07-23T14:21:31;9.67;;;7.50;;
4460;SDS011;2243;48.812;9.232;2022-07-23T14:24:03;7.37;;;6.63;;
4460;SDS011;2243;48.812;9.232;2022-07-23T14:26:39;8.80;;;7.30;;
4460;SDS011;2243;48.812;9.232;2022-07-23T14:29:10;7.10;;;6.50;;
4460;SDS011;2243;48.812;9.232;2022-07-23T14:31:44;7.70;;;7.10;;
4460;SDS011;2243;48.812;9.232;2022-07-23T14:34:32;7.00;;;6.20;;
4460;SDS011;2243;48.812;9.232;2022-07-23T14:37:08;7.97;;;6.63;;
4460;SDS011;2243;48.812;9.232;2022-07-23T14:39:48;7.97;;;7.40;;
4460;SDS011;2243;48.812;9.232;2022-07-23T14:42:23;7.20;;;6.60;;
4460;SDS011;2243;48.812;9.232;2022-07-23T14:44:54;8.00;;;7.40;;
4460;SDS011;2243;48.812;9.232;2022-07-23T14:47:28;7.10;;;6.60;;
4460;SDS011;2243;48.812;9.232;2022-07-23T14:50:10;8.10;;;7.40;;
4460;SDS011;2243;48.812;9.232;2022-07-23T14:52:50;8.50;;;7.80;;
4460;SDS011;2243;48.812;9.232;2022-07-23T14:55:23;7.50;;;6.90;;
4460;SDS011;2243;48.812;9.232;2022-07-23T14:57:57;7.20;;;6.70;;
4460;SDS011;2243;48.812;9.232;2022-07-23T15:00:39;7.77;;;7.13;;
4460;SDS011;2243;48.812;9.232;2022-07-23T15:03:10;7.63;;;6.93;;
4460;SDS011;2243;48.812;9.232;2022-07-23T15:05:42;8.00;;;7.30;;
4460;SDS011;2243;48.812;9.232;2022-07-23T15:08:14;7.53;;;6.77;;
4460;SDS011;2243;48.812;9.232;2022-07-23T15:10:55;7.97;;;7.37;;
4460;SDS011;2243;48.812;9.232;2022-07-23T15:13:27;7.87;;;7.17;;
4460;SDS011;2243;48.812;9.232;2022-07-23T15:16:10;7.07;;;6.57;;
4460;SDS011;2243;48.812;9.232;2022-07-23T15:18:51;8.00;;;7.00;;
4460;SDS011;2243;48.812;9.232;2022-07-23T15:21:23;7.23;;;6.63;;
4460;SDS011;2243;48.812;9.232;2022-07-23T15:23:59;7.30;;;6.70;;
4460;SDS011;2243;48.812;9.232;2022-07-23T15:26:36;8.40;;;7.47;;
4460;SDS011;2243;48.812;9.232;2022-07-23T15:29:10;6.87;;;6.40;;
4460;SDS011;2243;48.812;9.232;2022-07-23T15:31:41;7.60;;;6.90;;
4460;SDS011;2243;48.812;9.232;2022-07-23T15:34:31;7.17;;;6.60;;
4460;SDS011;2243;48.812;9.232;2022-07-23T15:37:08;7.20;;;6.60;;
4460;SDS011;2243;48.812;9.232;2022-07-23T15:39:49;7.20;;;6.70;;
4460;SDS011;2243;48.812;9.232;2022-07-23T15:42:25;6.80;;;6.00;;
4460;SDS011;2243;48.812;9.232;2022-07-23T15:45:00;6.70;;;6.30;;
4460;SDS011;2243;48.812;9.232;2022-07-23T15:47:43;6.83;;;6.43;;
4460;SDS011;2243;48.812;9.232;2022-07-23T15:50:37;8.10;;;7.33;;
4460;SDS011;2243;48.812;9.232;2022-07-23T15:53:21;8.00;;;7.20;;
4460;SDS011;2243;48.812;9.232;2022-07-23T15:56:06;6.60;;;6.10;;
4460;SDS011;2243;48.812;9.232;2022-07-23T15:58:54;7.17;;;6.47;;
4460;SDS011;2243;48.812;9.232;2022-07-23T16:01:43;6.53;;;6.13;;
4460;SDS011;2243;48.812;9.232;2022-07-23T16:04:27;7.27;;;6.60;;
4460;SDS011;2243;48.812;9.232;2022-07-23T16:07:05;7.20;;;6.60;;
4460;SDS011;2243;48.812;9.232;2022-07-23T16:09:54;6.97;;;6.50;;
4460;SDS011;2243;48.812;9.232;2022-07-23T16:12:56;11.33;;;7.30;;
4460;SDS011;2243;48.812;9.232;2022-07-23T16:15:30;6.90;;;6.40;;
4460;SDS011;2243;48.812;9.232;2022-07-23T16:18:04;7.03;;;6.53;;
4460;SDS011;2243;48.812;9.232;2022-07-23T16:20:38;6.63;;;6.23;;
4460;SDS011;2243;48.812;9.232;2022-07-23T16:23:17;7.10;;;6.50;;
4460;SDS011;2243;48.812;9.232;2022-07-23T16:25:59;7.30;;;6.80;;
4460;SDS011;2243;48.812;9.232;2022-07-23T16:28:30;7.10;;;6.50;;
4460;SDS011;2243;48.812;9.232;2022-07-23T16:31:01;7.67;;;7.10;;
4460;SDS011;2243;48.812;9.232;2022-07-23T16:33:32;7.33;;;6.83;;
4460;SDS011;2243;48.812;9.232;2022-07-23T16:36:03;8.43;;;7.63;;
4460;SDS011;2243;48.812;9.232;2022-07-23T16:38:36;7.60;;;6.90;;
4460;SDS011;2243;48.812;9.232;2022-07-23T16:41:08;8.60;;;7.70;;
4460;SDS011;2243;48.812;9.232;2022-07-23T16:44:04;7.57;;;6.97;;
4460;SDS011;2243;48.812;9.232;2022-07-23T16:46:38;9.83;;;8.23;;
4460;SDS011;2243;48.812;9.232;2022-07-23T16:49:10;8.87;;;8.07;;
4460;SDS011;2243;48.812;9.232;2022-07-23T16:52:04;9.83;;;8.93;;